createdAt,value
2016-10-16T00:00:38.449Z,0
2016-10-16T00:01:38.447Z,0
2016-10-16T00:02:38.425Z,0
2016-10-16T00:03:38.412Z,0
2016-10-16T00:04:38.406Z,0
2016-10-16T00:05:38.395Z,0
2016-10-16T00:06:38.385Z,0
2016-10-16T00:07:38.388Z,0
2016-10-16T00:08:38.378Z,0
2016-10-16T00:09:38.364Z,0
2016-10-16T00:10:38.361Z,0
2016-10-16T00:11:38.350Z,0
2016-10-16T00:12:38.337Z,0
2016-10-16T00:13:38.336Z,0
2016-10-16T00:14:38.330Z,0
2016-10-16T00:15:38.318Z,0
2016-10-16T00:16:38.317Z,0
2016-10-16T00:17:38.301Z,0
2016-10-16T00:18:38.292Z,0
2016-10-16T00:19:38.286Z,0
2016-10-16T00:20:38.283Z,0
2016-10-16T00:21:38.271Z,0
2016-10-16T00:22:38.263Z,0
2016-10-16T00:23:38.253Z,0
2016-10-16T00:24:38.263Z,0
2016-10-16T00:25:38.232Z,0
2016-10-16T00:26:38.229Z,0
2016-10-16T00:27:38.226Z,0
2016-10-16T00:28:38.209Z,0
2016-10-16T00:29:38.220Z,0
2016-10-16T00:30:38.199Z,0
2016-10-16T00:31:38.187Z,0
2016-10-16T00:32:38.175Z,0
2016-10-16T00:34:41.161Z,0
2016-10-16T00:35:40.012Z,0
2016-10-16T00:36:38.846Z,0
2016-10-16T00:37:39.448Z,0
2016-10-16T00:38:38.134Z,0
2016-10-16T00:39:38.866Z,0
2016-10-16T00:40:38.111Z,0
2016-10-16T00:41:38.117Z,0
2016-10-16T00:42:41.165Z,0
2016-10-16T00:43:38.261Z,0
2016-10-16T00:44:39.063Z,0
2016-10-16T00:45:40.415Z,0
2016-10-16T00:46:39.408Z,0
2016-10-16T00:47:38.056Z,0
2016-10-16T00:48:38.051Z,0
2016-10-16T00:49:38.459Z,0
2016-10-16T00:50:38.035Z,0
2016-10-16T00:51:38.021Z,0
2016-10-16T00:52:38.007Z,0
2016-10-16T00:53:38.012Z,0
2016-10-16T00:54:37.996Z,0
2016-10-16T00:55:37.993Z,0
2016-10-16T00:56:37.988Z,0
2016-10-16T00:57:38.273Z,0
2016-10-16T00:58:37.961Z,0
2016-10-16T00:59:37.959Z,0
2016-10-16T01:00:37.953Z,0
2016-10-16T01:01:37.939Z,0
2016-10-16T01:02:37.933Z,0
2016-10-16T01:03:37.921Z,0
2016-10-16T01:04:37.917Z,0
2016-10-16T01:05:37.913Z,0
2016-10-16T01:06:37.907Z,0
2016-10-16T01:07:37.897Z,0
2016-10-16T01:08:37.881Z,0
2016-10-16T01:09:37.877Z,0
2016-10-16T01:10:37.870Z,0
2016-10-16T01:11:37.876Z,0
2016-10-16T01:12:37.855Z,0
2016-10-16T01:13:37.855Z,0
2016-10-16T01:14:37.842Z,0
2016-10-16T01:15:37.837Z,0
2016-10-16T01:16:37.823Z,0
2016-10-16T01:17:37.818Z,0
2016-10-16T01:18:37.806Z,0
2016-10-16T01:19:37.802Z,0
2016-10-16T01:20:37.790Z,0
2016-10-16T01:21:37.774Z,0
2016-10-16T01:22:37.778Z,0
2016-10-16T01:23:37.761Z,0
2016-10-16T01:24:37.760Z,0
2016-10-16T01:25:37.755Z,0
2016-10-16T01:26:37.746Z,0
2016-10-16T01:27:37.734Z,0
2016-10-16T01:28:37.736Z,0
2016-10-16T01:29:37.718Z,0
2016-10-16T01:30:37.703Z,0
2016-10-16T01:31:37.709Z,0
2016-10-16T01:32:37.692Z,0
2016-10-16T01:33:37.692Z,0
2016-10-16T01:34:37.680Z,0
2016-10-16T01:35:37.669Z,0
2016-10-16T01:36:37.664Z,0
2016-10-16T01:37:37.657Z,0
2016-10-16T01:38:37.651Z,0
2016-10-16T01:39:37.634Z,0
2016-10-16T01:40:37.634Z,0
2016-10-16T01:41:37.626Z,0
2016-10-16T01:42:37.618Z,0
2016-10-16T01:43:37.606Z,0
2016-10-16T01:44:37.602Z,0
2016-10-16T01:45:37.593Z,0
2016-10-16T01:46:37.583Z,0
2016-10-16T01:47:37.575Z,0
2016-10-16T01:48:37.569Z,0
2016-10-16T01:49:37.563Z,0
2016-10-16T01:50:37.550Z,0
2016-10-16T01:51:40.218Z,0
2016-10-16T01:53:39.182Z,0
2016-10-16T01:54:38.859Z,0
2016-10-16T01:55:38.301Z,0
2016-10-16T01:56:38.814Z,0
2016-10-16T01:57:37.489Z,0
2016-10-16T01:58:37.489Z,0
2016-10-16T01:59:37.494Z,0
2016-10-16T02:00:39.290Z,0
2016-10-16T02:02:40.127Z,0
2016-10-16T02:03:38.157Z,0
2016-10-16T02:04:37.440Z,0
2016-10-16T02:05:38.838Z,0
2016-10-16T02:06:37.420Z,0
2016-10-16T02:07:37.410Z,0
2016-10-16T02:08:37.404Z,0
2016-10-16T02:09:37.399Z,0
2016-10-16T02:10:37.393Z,0
2016-10-16T02:11:37.383Z,0
2016-10-16T02:12:37.371Z,0
2016-10-16T02:13:37.368Z,0
2016-10-16T02:14:37.358Z,0
2016-10-16T02:15:37.343Z,0
2016-10-16T02:16:37.348Z,0
2016-10-16T02:17:37.332Z,0
2016-10-16T02:18:37.331Z,0
2016-10-16T02:19:37.316Z,0
2016-10-16T02:20:37.312Z,0
2016-10-16T02:21:37.298Z,0
2016-10-16T02:22:37.302Z,0
2016-10-16T02:23:37.285Z,0
2016-10-16T02:24:37.278Z,0
2016-10-16T02:25:37.265Z,0
2016-10-16T02:26:37.267Z,0
2016-10-16T02:27:37.264Z,0
2016-10-16T02:28:37.244Z,0
2016-10-16T02:29:37.243Z,0
2016-10-16T02:30:37.228Z,0
2016-10-16T02:31:37.220Z,0
2016-10-16T02:32:37.219Z,0
2016-10-16T02:33:37.203Z,0
2016-10-16T02:34:37.209Z,0
2016-10-16T02:35:37.191Z,0
2016-10-16T02:36:37.181Z,0
2016-10-16T02:37:37.176Z,0
2016-10-16T02:38:37.169Z,0
2016-10-16T02:39:37.161Z,0
2016-10-16T02:40:37.156Z,0
2016-10-16T02:41:37.145Z,0
2016-10-16T02:42:37.151Z,0
2016-10-16T02:43:37.134Z,0
2016-10-16T02:44:37.124Z,0
2016-10-16T02:45:37.115Z,0
2016-10-16T02:46:37.105Z,0
2016-10-16T02:47:37.095Z,0
2016-10-16T02:48:37.093Z,0
2016-10-16T02:49:37.086Z,0
2016-10-16T02:50:37.074Z,0
2016-10-16T02:51:37.062Z,0
2016-10-16T02:52:37.057Z,0
2016-10-16T02:53:37.048Z,0
2016-10-16T02:54:37.037Z,0
2016-10-16T02:55:37.040Z,0
2016-10-16T02:56:37.020Z,0
2016-10-16T02:57:37.015Z,0
2016-10-16T02:58:37.015Z,0
2016-10-16T02:59:36.997Z,0
2016-10-16T03:00:36.995Z,0
2016-10-16T03:01:36.997Z,0
2016-10-16T03:02:36.982Z,0
2016-10-16T03:03:36.964Z,0
2016-10-16T03:04:36.963Z,0
2016-10-16T03:05:36.954Z,0
2016-10-16T03:06:36.944Z,0
2016-10-16T03:07:36.945Z,0
2016-10-16T03:08:36.936Z,0
2016-10-16T03:09:36.927Z,0
2016-10-16T03:10:39.024Z,0
2016-10-16T03:11:37.859Z,0
2016-10-16T03:12:38.568Z,0
2016-10-16T03:13:38.863Z,0
2016-10-16T03:14:37.942Z,0
2016-10-16T03:15:36.884Z,0
2016-10-16T03:16:36.865Z,0
2016-10-16T03:17:36.882Z,0
2016-10-16T03:18:36.849Z,0
2016-10-16T03:19:39.109Z,0
2016-10-16T03:20:38.254Z,0
2016-10-16T03:21:39.448Z,0
2016-10-16T03:22:37.148Z,0
2016-10-16T03:23:36.813Z,0
2016-10-16T03:24:36.807Z,0
2016-10-16T03:25:36.794Z,0
2016-10-16T03:26:36.927Z,0
2016-10-16T03:27:36.782Z,0
2016-10-16T03:28:36.776Z,0
2016-10-16T03:29:36.765Z,0
2016-10-16T03:30:36.757Z,0
2016-10-16T03:31:36.751Z,0
2016-10-16T03:32:36.737Z,0
2016-10-16T03:33:36.733Z,0
2016-10-16T03:34:36.722Z,0
2016-10-16T03:35:36.724Z,0
2016-10-16T03:36:36.712Z,0
2016-10-16T03:37:36.707Z,0
2016-10-16T03:38:36.695Z,0
2016-10-16T03:39:36.693Z,0
2016-10-16T03:40:36.672Z,0
2016-10-16T03:41:36.663Z,0
2016-10-16T03:42:36.656Z,0
2016-10-16T03:43:36.652Z,0
2016-10-16T03:44:36.642Z,0
2016-10-16T03:45:36.629Z,0
2016-10-16T03:46:36.628Z,0
2016-10-16T03:47:36.631Z,0
2016-10-16T03:48:36.602Z,0
2016-10-16T03:49:36.599Z,0
2016-10-16T03:50:36.595Z,0
2016-10-16T03:51:36.590Z,0
2016-10-16T03:52:36.576Z,0
2016-10-16T03:53:36.575Z,0
2016-10-16T03:54:36.567Z,0
2016-10-16T03:55:36.557Z,0
2016-10-16T03:56:36.544Z,0
2016-10-16T03:57:36.543Z,0
2016-10-16T03:58:36.535Z,0
2016-10-16T03:59:36.517Z,0
2016-10-16T04:00:36.518Z,0
2016-10-16T04:01:36.501Z,0
2016-10-16T04:02:36.501Z,0
2016-10-16T04:03:36.495Z,0
2016-10-16T04:04:36.484Z,0
2016-10-16T04:05:36.484Z,0
2016-10-16T04:06:36.474Z,0
2016-10-16T04:07:36.461Z,0
2016-10-16T04:08:36.452Z,0
2016-10-16T04:09:36.450Z,0
2016-10-16T04:10:36.438Z,0
2016-10-16T04:11:36.441Z,0
2016-10-16T04:12:36.420Z,0
2016-10-16T04:13:36.422Z,0
2016-10-16T04:14:36.404Z,0
2016-10-16T04:15:36.401Z,0
2016-10-16T04:16:36.392Z,0
2016-10-16T04:17:36.382Z,0
2016-10-16T04:18:36.382Z,0
2016-10-16T04:19:36.370Z,0
2016-10-16T04:20:36.370Z,0
2016-10-16T04:21:36.370Z,0
2016-10-16T04:22:36.356Z,0
2016-10-16T04:23:36.332Z,0
2016-10-16T04:24:36.339Z,0
2016-10-16T04:25:36.323Z,0
2016-10-16T04:26:36.308Z,0
2016-10-16T04:27:36.298Z,0
2016-10-16T04:28:38.143Z,0
2016-10-16T04:29:37.897Z,0
2016-10-16T04:30:36.283Z,0
2016-10-16T04:31:37.629Z,0
2016-10-16T04:32:37.680Z,0
2016-10-16T04:33:36.865Z,0
2016-10-16T04:34:36.251Z,0
2016-10-16T04:35:36.476Z,0
2016-10-16T04:36:36.231Z,0
2016-10-16T04:37:38.819Z,0
2016-10-16T04:38:39.493Z,0
2016-10-16T04:39:36.283Z,0
2016-10-16T04:40:38.329Z,0
2016-10-16T04:41:36.190Z,0
2016-10-16T04:42:36.339Z,0
2016-10-16T04:43:36.172Z,0
2016-10-16T04:44:36.160Z,0
2016-10-16T04:45:36.164Z,0
2016-10-16T04:46:36.154Z,0
2016-10-16T04:47:36.160Z,0
2016-10-16T04:48:36.133Z,0
2016-10-16T04:49:36.118Z,0
2016-10-16T04:50:36.122Z,0
2016-10-16T04:51:36.107Z,0
2016-10-16T04:52:36.099Z,0
2016-10-16T04:53:36.098Z,0
2016-10-16T04:54:36.079Z,0
2016-10-16T04:55:36.077Z,0
2016-10-16T04:56:36.074Z,0
2016-10-16T04:57:36.054Z,0
2016-10-16T04:58:36.048Z,0
2016-10-16T04:59:36.049Z,0
2016-10-16T05:00:36.025Z,0
2016-10-16T05:01:36.026Z,0
2016-10-16T05:02:36.017Z,0
2016-10-16T05:03:36.007Z,0
2016-10-16T05:04:35.997Z,0
2016-10-16T05:05:35.997Z,0
2016-10-16T05:06:35.985Z,0
2016-10-16T05:07:35.971Z,0
2016-10-16T05:08:35.977Z,0
2016-10-16T05:09:35.959Z,0
2016-10-16T05:10:35.961Z,4
2016-10-16T05:11:35.942Z,4
2016-10-16T05:12:35.941Z,4
2016-10-16T05:13:35.931Z,0
2016-10-16T05:14:35.917Z,4
2016-10-16T05:15:35.908Z,4
2016-10-16T05:16:35.900Z,4
2016-10-16T05:17:35.897Z,8
2016-10-16T05:18:35.884Z,8
2016-10-16T05:19:35.877Z,12
2016-10-16T05:20:35.863Z,12
2016-10-16T05:21:35.864Z,12
2016-10-16T05:22:35.851Z,16
2016-10-16T05:23:35.845Z,16
2016-10-16T05:24:35.861Z,16
2016-10-16T05:25:35.827Z,20
2016-10-16T05:26:35.820Z,24
2016-10-16T05:27:35.807Z,28
2016-10-16T05:28:35.811Z,28
2016-10-16T05:29:35.802Z,32
2016-10-16T05:30:35.794Z,36
2016-10-16T05:31:36.079Z,40
2016-10-16T05:32:35.767Z,44
2016-10-16T05:33:35.764Z,48
2016-10-16T05:34:35.744Z,56
2016-10-16T05:35:35.776Z,60
2016-10-16T05:36:35.738Z,72
2016-10-16T05:37:35.726Z,76
2016-10-16T05:38:35.717Z,84
2016-10-16T05:39:35.706Z,92
2016-10-16T05:40:35.701Z,100
2016-10-16T05:41:35.699Z,108
2016-10-16T05:42:35.684Z,120
2016-10-16T05:43:35.973Z,132
2016-10-16T05:44:35.675Z,156
2016-10-16T05:45:35.656Z,168
2016-10-16T05:48:38.233Z,192
2016-10-16T05:49:37.580Z,196
2016-10-16T05:50:36.624Z,208
2016-10-16T05:51:36.841Z,228
2016-10-16T05:52:35.601Z,248
2016-10-16T05:53:35.599Z,256
2016-10-16T05:54:35.583Z,272
2016-10-16T05:55:38.617Z,288
2016-10-16T05:57:38.537Z,280
2016-10-16T05:58:36.321Z,320
2016-10-16T05:59:35.546Z,348
2016-10-16T06:00:36.491Z,352
2016-10-16T06:01:35.532Z,356
2016-10-16T06:02:35.515Z,344
2016-10-16T06:03:35.666Z,340
2016-10-16T06:04:35.503Z,340
2016-10-16T06:05:35.495Z,356
2016-10-16T06:06:35.488Z,376
2016-10-16T06:07:35.471Z,412
2016-10-16T06:08:35.470Z,428
2016-10-16T06:09:35.453Z,464
2016-10-16T06:10:35.451Z,532
2016-10-16T06:11:35.444Z,580
2016-10-16T06:12:35.430Z,620
2016-10-16T06:13:35.427Z,632
2016-10-16T06:14:35.418Z,616
2016-10-16T06:15:35.407Z,604
2016-10-16T06:16:35.415Z,608
2016-10-16T06:17:35.386Z,624
2016-10-16T06:18:35.388Z,632
2016-10-16T06:19:35.387Z,644
2016-10-16T06:20:35.362Z,648
2016-10-16T06:21:35.354Z,700
2016-10-16T06:22:35.350Z,728
2016-10-16T06:23:35.344Z,800
2016-10-16T06:24:35.331Z,852
2016-10-16T06:25:35.325Z,888
2016-10-16T06:26:35.311Z,924
2016-10-16T06:27:35.305Z,932
2016-10-16T06:28:35.294Z,976
2016-10-16T06:29:35.290Z,924
2016-10-16T06:30:35.277Z,996
2016-10-16T06:31:35.272Z,1024
2016-10-16T06:32:35.262Z,1092
2016-10-16T06:33:35.252Z,1088
2016-10-16T06:34:35.246Z,1124
2016-10-16T06:35:35.247Z,1172
2016-10-16T06:36:35.239Z,1188
2016-10-16T06:37:35.229Z,1204
2016-10-16T06:38:35.226Z,1256
2016-10-16T06:39:35.206Z,1288
2016-10-16T06:40:35.194Z,1332
2016-10-16T06:41:35.209Z,1424
2016-10-16T06:42:35.182Z,1440
2016-10-16T06:43:35.178Z,1444
2016-10-16T06:44:35.159Z,1468
2016-10-16T06:45:35.158Z,1496
2016-10-16T06:46:35.150Z,1484
2016-10-16T06:47:35.145Z,1544
2016-10-16T06:48:35.137Z,1492
2016-10-16T06:49:35.127Z,1344
2016-10-16T06:50:35.119Z,1276
2016-10-16T06:51:35.108Z,1240
2016-10-16T06:52:35.096Z,1256
2016-10-16T06:53:35.094Z,1228
2016-10-16T06:54:35.079Z,1344
2016-10-16T06:55:35.075Z,1528
2016-10-16T06:56:35.077Z,1576
2016-10-16T06:57:35.062Z,1568
2016-10-16T06:58:35.055Z,1708
2016-10-16T06:59:35.044Z,1720
2016-10-16T07:00:35.037Z,1740
2016-10-16T07:01:35.020Z,1800
2016-10-16T07:02:35.040Z,1924
2016-10-16T07:03:35.002Z,1912
2016-10-16T07:04:35.010Z,1792
2016-10-16T07:05:36.528Z,1828
2016-10-16T07:06:35.178Z,1948
2016-10-16T07:07:35.861Z,2012
2016-10-16T07:08:36.207Z,2192
2016-10-16T07:09:35.265Z,2236
2016-10-16T07:10:34.954Z,2388
2016-10-16T07:11:34.945Z,2596
2016-10-16T07:12:34.936Z,2556
2016-10-16T07:13:34.941Z,2632
2016-10-16T07:14:36.574Z,2520
2016-10-16T07:15:35.791Z,2500
2016-10-16T07:16:37.011Z,2412
2016-10-16T07:17:34.920Z,2324
2016-10-16T07:18:34.896Z,2312
2016-10-16T07:19:34.882Z,2280
2016-10-16T07:20:34.875Z,2344
2016-10-16T07:21:34.865Z,2412
2016-10-16T07:22:34.862Z,2260
2016-10-16T07:23:34.856Z,2356
2016-10-16T07:24:34.842Z,2396
2016-10-16T07:25:34.852Z,2432
2016-10-16T07:26:34.834Z,2576
2016-10-16T07:27:34.817Z,2680
2016-10-16T07:28:34.813Z,2792
2016-10-16T07:29:34.803Z,2932
2016-10-16T07:30:34.797Z,2948
2016-10-16T07:31:34.792Z,2836
2016-10-16T07:32:34.785Z,2668
2016-10-16T07:33:34.771Z,2776
2016-10-16T07:34:34.769Z,2812
2016-10-16T07:35:34.757Z,2936
2016-10-16T07:36:34.750Z,3060
2016-10-16T07:37:34.745Z,3240
2016-10-16T07:38:34.743Z,3388
2016-10-16T07:39:34.725Z,3464
2016-10-16T07:40:34.715Z,3676
2016-10-16T07:41:34.710Z,3536
2016-10-16T07:42:34.693Z,3364
2016-10-16T07:43:34.702Z,3172
2016-10-16T07:44:34.685Z,2932
2016-10-16T07:45:34.685Z,3068
2016-10-16T07:46:34.670Z,3100
2016-10-16T07:47:34.660Z,2992
2016-10-16T07:48:34.663Z,2936
2016-10-16T07:49:34.652Z,2768
2016-10-16T07:50:34.635Z,2652
2016-10-16T07:51:34.632Z,2776
2016-10-16T07:52:34.622Z,2756
2016-10-16T07:53:34.610Z,2848
2016-10-16T07:54:34.609Z,3068
2016-10-16T07:55:34.601Z,3140
2016-10-16T07:56:34.595Z,3220
2016-10-16T07:57:34.583Z,3504
2016-10-16T07:58:34.584Z,3600
2016-10-16T07:59:34.571Z,3788
2016-10-16T08:00:34.564Z,3816
2016-10-16T08:01:34.562Z,3660
2016-10-16T08:02:34.547Z,3472
2016-10-16T08:03:34.544Z,3328
2016-10-16T08:04:34.537Z,3296
2016-10-16T08:05:34.527Z,3264
2016-10-16T08:06:34.514Z,3564
2016-10-16T08:07:34.506Z,3724
2016-10-16T08:08:34.504Z,3812
2016-10-16T08:09:34.489Z,3896
2016-10-16T08:10:34.486Z,3900
2016-10-16T08:11:34.486Z,3960
2016-10-16T08:12:34.470Z,3944
2016-10-16T08:13:34.462Z,3884
2016-10-16T08:14:34.453Z,3928
2016-10-16T08:15:34.451Z,4268
2016-10-16T08:16:34.445Z,4344
2016-10-16T08:17:34.439Z,4340
2016-10-16T08:18:34.425Z,4384
2016-10-16T08:19:34.414Z,4412
2016-10-16T08:20:34.411Z,4132
2016-10-16T08:21:34.412Z,3896
2016-10-16T08:22:34.399Z,3808
2016-10-16T08:23:37.788Z,3988
2016-10-16T08:24:37.297Z,4224
2016-10-16T08:25:35.421Z,4320
2016-10-16T08:26:34.362Z,4612
2016-10-16T08:27:34.358Z,4772
2016-10-16T08:28:34.354Z,5012
2016-10-16T08:29:34.441Z,5044
2016-10-16T08:30:34.332Z,5024
2016-10-16T08:31:34.329Z,4980
2016-10-16T08:32:35.841Z,4900
2016-10-16T08:33:34.475Z,4940
2016-10-16T08:34:36.735Z,4776
2016-10-16T08:35:35.395Z,4456
2016-10-16T08:36:35.942Z,4312
2016-10-16T08:37:34.278Z,4296
2016-10-16T08:38:34.274Z,4284
2016-10-16T08:39:34.265Z,4228
2016-10-16T08:40:34.263Z,4240
2016-10-16T08:41:34.260Z,4356
2016-10-16T08:42:34.245Z,4204
2016-10-16T08:43:34.239Z,4152
2016-10-16T08:44:34.238Z,4168
2016-10-16T08:45:34.223Z,4200
2016-10-16T08:46:34.524Z,4164
2016-10-16T08:47:34.208Z,4128
2016-10-16T08:48:34.216Z,4112
2016-10-16T08:49:34.189Z,4144
2016-10-16T08:50:34.194Z,4096
2016-10-16T08:51:34.180Z,4092
2016-10-16T08:52:34.173Z,4148
2016-10-16T08:53:34.169Z,4312
2016-10-16T08:54:34.153Z,4380
2016-10-16T08:55:34.152Z,4380
2016-10-16T08:56:34.147Z,4488
2016-10-16T08:57:34.149Z,4528
2016-10-16T08:58:34.143Z,4616
2016-10-16T08:59:34.134Z,4632
2016-10-16T09:00:34.124Z,4580
2016-10-16T09:01:34.108Z,4556
2016-10-16T09:02:34.105Z,4540
2016-10-16T09:03:34.095Z,4600
2016-10-16T09:04:34.111Z,4812
2016-10-16T09:05:34.078Z,4908
2016-10-16T09:06:34.083Z,4944
2016-10-16T09:07:34.070Z,5204
2016-10-16T09:08:34.059Z,5448
2016-10-16T09:09:34.052Z,5700
2016-10-16T09:10:34.050Z,5916
2016-10-16T09:11:34.051Z,6188
2016-10-16T09:12:34.042Z,6340
2016-10-16T09:13:34.033Z,6588
2016-10-16T09:14:34.019Z,6812
2016-10-16T09:15:34.013Z,7108
2016-10-16T09:16:34.008Z,7472
2016-10-16T09:17:34.001Z,7436
2016-10-16T09:18:33.996Z,7248
2016-10-16T09:19:33.984Z,7460
2016-10-16T09:20:33.983Z,7460
2016-10-16T09:21:33.984Z,6992
2016-10-16T09:22:33.969Z,6692
2016-10-16T09:23:33.963Z,6548
2016-10-16T09:24:33.954Z,6620
2016-10-16T09:25:33.954Z,6512
2016-10-16T09:26:33.950Z,6356
2016-10-16T09:27:33.946Z,6484
2016-10-16T09:28:33.947Z,6488
2016-10-16T09:29:33.922Z,6232
2016-10-16T09:30:33.919Z,6124
2016-10-16T09:31:33.905Z,6056
2016-10-16T09:32:33.914Z,5972
2016-10-16T09:33:33.904Z,5864
2016-10-16T09:34:33.905Z,5452
2016-10-16T09:35:33.889Z,5092
2016-10-16T09:36:33.880Z,5120
2016-10-16T09:37:33.869Z,5100
2016-10-16T09:38:33.876Z,5076
2016-10-16T09:39:33.869Z,5340
2016-10-16T09:40:33.854Z,5612
2016-10-16T09:41:37.163Z,5848
2016-10-16T09:43:35.551Z,5908
2016-10-16T09:44:34.807Z,5860
2016-10-16T09:45:33.829Z,5932
2016-10-16T09:46:33.817Z,6128
2016-10-16T09:47:33.815Z,6484
2016-10-16T09:48:33.808Z,6960
2016-10-16T09:49:33.809Z,7136
2016-10-16T09:51:34.021Z,7492
2016-10-16T09:52:35.375Z,7612
2016-10-16T09:53:34.932Z,7752
2016-10-16T09:54:33.771Z,8012
2016-10-16T09:55:34.558Z,8240
2016-10-16T09:56:34.578Z,8176
2016-10-16T09:57:33.924Z,8072
2016-10-16T09:58:33.743Z,8132
2016-10-16T09:59:33.736Z,8340
2016-10-16T10:00:33.735Z,8416
2016-10-16T10:01:33.722Z,8272
2016-10-16T10:02:33.717Z,8236
2016-10-16T10:03:33.720Z,8292
2016-10-16T10:04:33.717Z,8232
2016-10-16T10:05:33.701Z,8376
2016-10-16T10:06:34.016Z,8644
2016-10-16T10:07:33.685Z,9048
2016-10-16T10:08:33.683Z,9272
2016-10-16T10:09:33.681Z,9664
2016-10-16T10:10:33.670Z,9744
2016-10-16T10:11:33.906Z,10124
2016-10-16T10:12:33.662Z,10188
2016-10-16T10:13:33.663Z,10388
2016-10-16T10:14:33.651Z,10340
2016-10-16T10:15:33.642Z,10136
2016-10-16T10:16:33.642Z,9944
2016-10-16T10:17:33.635Z,9892
2016-10-16T10:18:33.621Z,9944
2016-10-16T10:19:33.622Z,10104
2016-10-16T10:20:33.619Z,9884
2016-10-16T10:21:33.609Z,9564
2016-10-16T10:22:33.599Z,9192
2016-10-16T10:23:33.596Z,8796
2016-10-16T10:24:33.599Z,8512
2016-10-16T10:25:33.584Z,8168
2016-10-16T10:26:33.588Z,7980
2016-10-16T10:27:33.568Z,7784
2016-10-16T10:28:33.573Z,7424
2016-10-16T10:29:33.586Z,7280
2016-10-16T10:30:33.567Z,7592
2016-10-16T10:31:33.555Z,8008
2016-10-16T10:32:33.545Z,8440
2016-10-16T10:33:33.542Z,8988
2016-10-16T10:34:33.534Z,9232
2016-10-16T10:35:33.531Z,9756
2016-10-16T10:36:33.529Z,10148
2016-10-16T10:37:33.523Z,10332
2016-10-16T10:38:33.510Z,10428
2016-10-16T10:39:33.511Z,10440
2016-10-16T10:40:33.502Z,10440
2016-10-16T10:41:33.504Z,10232
2016-10-16T10:42:33.508Z,9732
2016-10-16T10:43:33.484Z,9324
2016-10-16T10:44:33.481Z,9008
2016-10-16T10:45:33.479Z,8868
2016-10-16T10:46:33.472Z,8756
2016-10-16T10:47:33.462Z,8660
2016-10-16T10:48:33.456Z,8792
2016-10-16T10:49:33.451Z,9028
2016-10-16T10:50:33.439Z,9216
2016-10-16T10:51:33.442Z,9536
2016-10-16T10:52:33.438Z,9964
2016-10-16T10:53:33.449Z,10348
2016-10-16T10:54:33.428Z,10736
2016-10-16T10:55:33.421Z,10680
2016-10-16T10:56:33.409Z,10364
2016-10-16T10:57:33.403Z,10128
2016-10-16T10:58:33.403Z,10056
2016-10-16T10:59:35.193Z,10060
2016-10-16T11:00:35.907Z,9896
2016-10-16T11:01:36.111Z,9820
2016-10-16T11:02:34.179Z,9868
2016-10-16T11:03:33.392Z,10048
2016-10-16T11:04:34.710Z,10596
2016-10-16T11:05:33.373Z,11168
2016-10-16T11:06:33.360Z,11296
2016-10-16T11:07:33.354Z,10972
2016-10-16T11:08:34.411Z,10464
2016-10-16T11:10:35.676Z,10252
2016-10-16T11:11:33.339Z,10632
2016-10-16T11:12:33.495Z,11352
2016-10-16T11:13:33.325Z,11944
2016-10-16T11:14:33.814Z,12048
2016-10-16T11:15:33.322Z,11948
2016-10-16T11:16:33.305Z,11868
2016-10-16T11:17:33.322Z,11848
2016-10-16T11:18:33.303Z,11716
2016-10-16T11:19:33.297Z,11708
2016-10-16T11:20:33.291Z,11976
2016-10-16T11:21:33.283Z,12324
2016-10-16T11:22:33.278Z,12432
2016-10-16T11:23:33.288Z,12128
2016-10-16T11:24:33.277Z,11696
2016-10-16T11:25:33.264Z,11420
2016-10-16T11:26:33.258Z,11344
2016-10-16T11:27:33.256Z,11408
2016-10-16T11:28:33.251Z,11436
2016-10-16T11:29:33.241Z,11276
2016-10-16T11:30:33.244Z,11088
2016-10-16T11:31:33.235Z,10952
2016-10-16T11:32:33.232Z,10868
2016-10-16T11:33:33.233Z,11044
2016-10-16T11:34:33.534Z,11280
2016-10-16T11:35:33.220Z,11340
2016-10-16T11:36:33.217Z,11248
2016-10-16T11:37:33.202Z,11104
2016-10-16T11:38:33.211Z,10816
2016-10-16T11:39:33.207Z,10308
2016-10-16T11:40:33.197Z,9716
2016-10-16T11:41:33.200Z,9296
2016-10-16T11:42:33.185Z,9176
2016-10-16T11:43:33.188Z,9212
2016-10-16T11:44:33.181Z,9232
2016-10-16T11:45:33.181Z,9136
2016-10-16T11:46:33.181Z,9004
2016-10-16T11:47:33.165Z,8912
2016-10-16T11:48:33.158Z,8876
2016-10-16T11:49:33.163Z,8876
2016-10-16T11:50:33.147Z,8984
2016-10-16T11:51:33.158Z,9188
2016-10-16T11:52:33.136Z,9420
2016-10-16T11:53:33.136Z,9620
2016-10-16T11:54:33.132Z,9812
2016-10-16T11:55:33.128Z,9960
2016-10-16T11:56:33.122Z,10104
2016-10-16T11:57:33.112Z,10244
2016-10-16T11:58:33.117Z,10336
2016-10-16T11:59:33.111Z,10292
2016-10-16T12:00:33.102Z,10392
2016-10-16T12:01:33.104Z,10488
2016-10-16T12:02:33.095Z,10544
2016-10-16T12:03:33.091Z,10656
2016-10-16T12:04:33.089Z,10624
2016-10-16T12:05:33.076Z,10588
2016-10-16T12:06:33.075Z,10736
2016-10-16T12:07:33.087Z,10688
2016-10-16T12:08:33.089Z,10568
2016-10-16T12:09:33.064Z,10520
2016-10-16T12:10:33.053Z,10600
2016-10-16T12:11:33.053Z,10764
2016-10-16T12:12:33.056Z,10928
2016-10-16T12:13:33.046Z,11160
2016-10-16T12:14:33.050Z,11204
2016-10-16T12:15:33.028Z,11016
2016-10-16T12:16:33.040Z,10856
2016-10-16T12:17:33.030Z,10820
2016-10-16T12:18:35.023Z,10516
2016-10-16T12:19:36.207Z,10236
2016-10-16T12:20:35.421Z,10592
2016-10-16T12:21:33.188Z,10824
2016-10-16T12:22:33.013Z,10584
2016-10-16T12:23:32.997Z,10352
2016-10-16T12:24:32.997Z,10560
2016-10-16T12:25:32.997Z,10664
2016-10-16T12:26:32.990Z,10764
2016-10-16T12:28:35.971Z,10292
2016-10-16T12:29:34.204Z,10412
2016-10-16T12:30:32.963Z,10480
2016-10-16T12:31:32.960Z,10056
2016-10-16T12:32:32.961Z,9832
2016-10-16T12:33:32.959Z,9728
2016-10-16T12:34:32.949Z,9592
2016-10-16T12:35:32.942Z,9292
2016-10-16T12:36:32.940Z,8992
2016-10-16T12:37:32.936Z,8852
2016-10-16T12:38:32.926Z,8656
2016-10-16T12:39:32.924Z,8380
2016-10-16T12:40:32.923Z,8164
2016-10-16T12:41:32.916Z,8120
2016-10-16T12:42:32.908Z,8120
2016-10-16T12:43:32.908Z,7956
2016-10-16T12:44:32.904Z,7696
2016-10-16T12:45:32.897Z,7560
2016-10-16T12:46:32.889Z,7496
2016-10-16T12:47:32.882Z,7276
2016-10-16T12:48:32.882Z,7104
2016-10-16T12:49:32.877Z,7312
2016-10-16T12:50:32.875Z,7440
2016-10-16T12:51:32.873Z,7600
2016-10-16T12:52:32.864Z,7852
2016-10-16T12:53:32.848Z,7608
2016-10-16T12:54:32.858Z,7608
2016-10-16T12:55:32.874Z,7592
2016-10-16T12:56:32.853Z,7456
2016-10-16T12:57:32.837Z,7396
2016-10-16T12:58:32.831Z,7596
2016-10-16T12:59:32.825Z,7276
2016-10-16T13:00:32.825Z,7056
2016-10-16T13:01:32.816Z,7016
2016-10-16T13:02:32.812Z,6788
2016-10-16T13:03:32.806Z,6540
2016-10-16T13:04:32.799Z,6584
2016-10-16T13:05:32.796Z,6716
2016-10-16T13:06:32.790Z,6488
2016-10-16T13:07:32.789Z,6448
2016-10-16T13:08:32.788Z,6240
2016-10-16T13:09:32.930Z,6232
2016-10-16T13:10:32.770Z,6220
2016-10-16T13:11:32.772Z,6188
2016-10-16T13:12:32.758Z,6028
2016-10-16T13:13:32.753Z,5904
2016-10-16T13:14:32.753Z,6308
2016-10-16T13:15:32.740Z,6272
2016-10-16T13:16:32.741Z,5932
2016-10-16T13:17:32.734Z,5872
2016-10-16T13:18:32.739Z,5980
2016-10-16T13:19:32.724Z,6004
2016-10-16T13:20:32.726Z,6000
2016-10-16T13:21:32.734Z,5948
2016-10-16T13:22:32.710Z,5904
2016-10-16T13:23:32.697Z,5568
2016-10-16T13:24:32.696Z,5692
2016-10-16T13:25:32.688Z,5628
2016-10-16T13:26:32.687Z,5496
2016-10-16T13:27:32.681Z,5416
2016-10-16T13:28:32.681Z,5256
2016-10-16T13:29:32.669Z,5144
2016-10-16T13:30:32.668Z,5080
2016-10-16T13:31:32.655Z,4988
2016-10-16T13:32:32.673Z,5088
2016-10-16T13:33:32.649Z,4916
2016-10-16T13:34:32.651Z,4716
2016-10-16T13:35:32.639Z,4720
2016-10-16T13:36:35.370Z,4468
2016-10-16T13:37:34.093Z,4636
2016-10-16T13:38:32.942Z,4652
2016-10-16T13:39:34.871Z,4432
2016-10-16T13:40:32.616Z,4348
2016-10-16T13:41:32.848Z,4224
2016-10-16T13:42:32.597Z,4328
2016-10-16T13:43:32.878Z,4324
2016-10-16T13:44:32.592Z,4136
2016-10-16T13:45:34.497Z,4144
2016-10-16T13:47:34.643Z,4104
2016-10-16T13:48:34.033Z,3912
2016-10-16T13:49:33.050Z,3824
2016-10-16T13:50:33.137Z,3944
2016-10-16T13:51:32.927Z,4044
2016-10-16T13:52:32.547Z,4200
2016-10-16T13:53:32.532Z,4228
2016-10-16T13:54:32.534Z,3948
2016-10-16T13:55:32.529Z,3708
2016-10-16T13:56:32.520Z,3728
2016-10-16T13:57:32.508Z,3696
2016-10-16T13:58:32.508Z,3536
2016-10-16T13:59:32.516Z,3420
2016-10-16T14:00:32.497Z,3360
2016-10-16T14:01:32.482Z,3372